Time;durP1;ratioP1;P1;durP2;ratioP2;P2;SDS_P1;SDS_P2;PMS_P1;PMS_P2;Temp;Humidity;BMP_temperature;BMP_pressure;BME280_temperature;BME280_humidity;BME280_pressure;Samples;Min_cycle;Max_cycle;Signal;HPM_P1;HPM_P2
2022/01/08 00:00:58;;;;;;;12.30;1.52;;;1.20;99.90;;;;;;5032948;28;20532;-70
2022/01/08 00:03:24;;;;;;;9.20;1.50;;;1.10;99.90;;;;;;5031748;28;20408;-71
2022/01/08 00:05:49;;;;;;;14.63;2.10;;;1.20;99.90;;;;;;5033251;28;20026;-70
2022/01/08 00:08:15;;;;;;;15.55;2.90;;;1.30;99.90;;;;;;5033172;28;20546;-70
2022/01/08 00:10:41;;;;;;;16.27;1.90;;;1.50;99.90;;;;;;5032965;28;20030;-70
2022/01/08 00:13:08;;;;;;;17.25;1.77;;;1.70;99.90;;;;;;5032784;28;20496;-70
2022/01/08 00:15:35;;;;;;;15.95;3.13;;;1.90;99.90;;;;;;5032910;28;20029;-70
2022/01/08 00:18:01;;;;;;;16.33;1.63;;;1.90;99.90;;;;;;5032907;28;20030;-70
2022/01/08 00:20:28;;;;;;;23.08;1.88;;;1.90;99.90;;;;;;5032763;28;20040;-70
2022/01/08 00:22:54;;;;;;;10.50;1.80;;;2.00;99.90;;;;;;5031422;28;20489;-70
2022/01/08 00:25:20;;;;;;;11.95;1.63;;;2.00;99.90;;;;;;5033560;28;20064;-70
2022/01/08 00:27:46;;;;;;;13.43;1.80;;;1.90;99.90;;;;;;5036651;28;20442;-70
2022/01/08 00:30:13;;;;;;;11.55;1.48;;;1.90;99.90;;;;;;5036588;28;20025;-71
2022/01/08 00:32:39;;;;;;;11.95;1.80;;;1.80;99.90;;;;;;5036536;28;20100;-71
2022/01/08 00:35:09;;;;;;;16.63;1.95;;;1.70;99.90;;;;;;5035269;28;20026;-70
2022/01/08 00:37:37;;;;;;;14.05;2.30;;;1.70;99.90;;;;;;5036755;28;20416;-70
2022/01/08 00:40:07;;;;;;;10.50;2.42;;;1.70;99.90;;;;;;5036617;28;20523;-71
2022/01/08 00:42:34;;;;;;;19.92;3.45;;;1.60;99.90;;;;;;5036584;28;20041;-70
2022/01/08 00:45:00;;;;;;;23.92;3.80;;;1.60;99.90;;;;;;5036619;28;20029;-71
2022/01/08 00:47:25;;;;;;;11.07;4.25;;;1.50;99.90;;;;;;5036879;28;20025;-70
2022/01/08 00:49:51;;;;;;;28.88;6.03;;;1.70;99.90;;;;;;5036173;28;20026;-71
2022/01/08 00:52:17;;;;;;;23.92;5.65;;;1.60;99.90;;;;;;5036233;28;20025;-70
2022/01/08 00:54:42;;;;;;;18.10;5.65;;;1.60;99.90;;;;;;5036480;28;20026;-70
2022/01/08 00:57:08;;;;;;;20.42;5.97;;;1.60;99.90;;;;;;5036117;28;20049;-70
2022/01/08 00:59:33;;;;;;;19.38;4.75;;;1.50;99.90;;;;;;5036176;28;20105;-70
2022/01/08 01:01:59;;;;;;;11.73;3.55;;;1.50;99.90;;;;;;5036003;28;20036;-70
2022/01/08 01:04:24;;;;;;;22.33;4.32;;;1.50;99.90;;;;;;5035966;28;20497;-71
2022/01/08 01:06:50;;;;;;;17.73;3.60;;;1.50;99.90;;;;;;5036197;28;20025;-71
2022/01/08 01:09:16;;;;;;;9.23;2.75;;;1.40;99.90;;;;;;5036130;28;20072;-70
2022/01/08 01:11:41;;;;;;;12.88;2.60;;;1.30;99.90;;;;;;5035868;28;20217;-70
2022/01/08 01:14:07;;;;;;;14.88;3.10;;;1.20;99.90;;;;;;5035794;28;20492;-70
2022/01/08 01:16:32;;;;;;;15.57;2.60;;;1.10;99.90;;;;;;5036055;28;20030;-70
2022/01/08 01:19:01;;;;;;;18.35;3.13;;;1.10;99.90;;;;;;5035728;28;20030;-71
2022/01/08 01:21:26;;;;;;;23.42;3.17;;;1.10;99.90;;;;;;5035468;28;20022;-70
2022/01/08 01:23:53;;;;;;;18.30;2.70;;;1.10;99.90;;;;;;5035914;28;20044;-70
2022/01/08 01:26:23;;;;;;;17.33;2.55;;;1.20;99.90;;;;;;5035606;28;20057;-71
2022/01/08 01:28:57;;;;;;;14.35;2.55;;;1.20;99.90;;;;;;5036090;28;20029;-71
2022/01/08 01:47:17;;;;;;;16.63;1.27;;;1.50;99.90;;;;;;5034867;28;20408;-70
2022/01/08 01:49:46;;;;;;;18.02;2.05;;;1.70;99.90;;;;;;5035005;28;20040;-70
2022/01/08 01:52:15;;;;;;;8.38;1.77;;;1.70;99.90;;;;;;5035111;28;20029;-70
2022/01/08 01:54:41;;;;;;;12.85;1.25;;;1.80;99.90;;;;;;5035113;28;20025;-70
2022/01/08 01:57:09;;;;;;;9.82;1.20;;;1.90;99.90;;;;;;5034708;28;20039;-70
2022/01/08 01:59:35;;;;;;;24.48;2.20;;;2.00;99.90;;;;;;5034516;28;20071;-70
2022/01/08 02:02:02;;;;;;;32.15;2.30;;;2.00;99.90;;;;;;5034858;28;20029;-70
2022/01/08 02:04:27;;;;;;;14.45;2.05;;;2.00;99.90;;;;;;5034896;28;20109;-70
2022/01/08 02:06:53;;;;;;;12.18;1.70;;;2.10;99.90;;;;;;5035142;28;20067;-71
2022/01/08 02:09:19;;;;;;;19.20;2.10;;;2.10;99.90;;;;;;5034724;28;20079;-71
2022/01/08 02:11:55;;;;;;;13.00;1.80;;;2.20;99.90;;;;;;5034878;28;20029;-70
2022/01/08 02:14:20;;;;;;;16.65;1.77;;;2.20;99.90;;;;;;5034721;28;20045;-70
2022/01/08 02:16:46;;;;;;;16.58;1.80;;;2.30;99.90;;;;;;5034643;28;20064;-70
2022/01/08 02:19:11;;;;;;;17.83;1.75;;;2.30;99.90;;;;;;5033379;28;20068;-70
2022/01/08 02:21:37;;;;;;;13.50;1.73;;;2.30;99.90;;;;;;5034396;28;20507;-70
2022/01/08 02:24:03;;;;;;;17.77;2.38;;;2.30;99.90;;;;;;5034494;28;20029;-70
2022/01/08 02:26:28;;;;;;;16.13;1.90;;;2.40;99.90;;;;;;5034516;28;20108;-71
2022/01/08 02:28:54;;;;;;;12.40;1.75;;;2.30;99.90;;;;;;5034382;28;20098;-71
2022/01/08 02:31:22;;;;;;;22.70;2.03;;;2.30;99.90;;;;;;5033062;28;20061;-71
2022/01/08 02:33:47;;;;;;;13.95;1.35;;;2.30;99.90;;;;;;5034472;28;20021;-70
2022/01/08 02:36:13;;;;;;;18.98;2.47;;;2.30;99.90;;;;;;5033033;28;20500;-71
2022/01/08 02:38:39;;;;;;;28.88;2.33;;;2.40;99.90;;;;;;5033596;28;20021;-71
2022/01/08 02:41:06;;;;;;;16.48;1.80;;;2.50;99.90;;;;;;5034163;28;20096;-71
2022/01/08 02:43:39;;;;;;;11.50;2.05;;;2.50;99.90;;;;;;5034190;28;20409;-71
2022/01/08 02:46:05;;;;;;;19.92;2.42;;;2.60;99.90;;;;;;5034181;28;20497;-71
2022/01/08 02:48:30;;;;;;;24.42;3.10;;;2.70;99.90;;;;;;5034312;28;20064;-71
2022/01/08 02:50:56;;;;;;;26.13;4.22;;;2.70;99.90;;;;;;5033945;28;20022;-71
2022/01/08 02:53:22;;;;;;;32.20;4.43;;;2.80;99.90;;;;;;5034003;28;20021;-71
2022/01/08 02:55:49;;;;;;;26.98;4.07;;;2.80;99.90;;;;;;5034173;28;20025;-71
2022/01/08 02:58:14;;;;;;;24.02;4.30;;;2.80;99.90;;;;;;5033898;28;20041;-70
2022/01/08 03:00:40;;;;;;;28.95;5.13;;;2.90;99.90;;;;;;5034133;28;20021;-71
2022/01/08 03:03:05;;;;;;;18.85;4.72;;;2.90;99.90;;;;;;5033731;28;20033;-70
2022/01/08 03:05:31;;;;;;;24.92;4.20;;;2.90;99.90;;;;;;5033762;28;20028;-70
2022/01/08 03:07:56;;;;;;;19.08;2.40;;;2.90;99.90;;;;;;5033886;28;20362;-70
2022/01/08 03:10:22;;;;;;;9.77;1.60;;;2.80;99.90;;;;;;5033957;28;20033;-70
2022/01/08 03:12:49;;;;;;;9.57;1.27;;;2.70;99.90;;;;;;5033585;28;20099;-70
2022/01/08 03:15:17;;;;;;;13.05;1.30;;;2.50;99.90;;;;;;5032350;28;20071;-70
2022/01/08 03:17:44;;;;;;;32.78;1.60;;;2.50;99.90;;;;;;5033832;28;20030;-70
2022/01/08 03:20:13;;;;;;;20.85;1.35;;;2.40;99.90;;;;;;5033481;28;20500;-70
2022/01/08 03:22:41;;;;;;;8.20;1.10;;;2.30;99.90;;;;;;5033377;28;20120;-70
2022/01/08 03:25:07;;;;;;;12.38;1.05;;;2.30;99.90;;;;;;5033422;28;20480;-70
2022/01/08 03:27:33;;;;;;;12.25;0.63;;;2.10;99.90;;;;;;5033472;28;20033;-70
2022/01/08 03:30:00;;;;;;;7.78;1.20;;;2.00;99.90;;;;;;5033627;28;20021;-70
2022/01/08 03:32:25;;;;;;;10.70;1.00;;;1.90;99.90;;;;;;5033404;28;20072;-70
2022/01/08 03:34:52;;;;;;;6.70;0.63;;;1.90;99.90;;;;;;5033618;28;20045;-71
2022/01/08 03:37:18;;;;;;;4.63;0.43;;;1.90;99.90;;;;;;5033287;28;20026;-70
2022/01/08 03:39:43;;;;;;;11.93;0.90;;;1.90;99.90;;;;;;5033289;28;20389;-71
2022/01/08 03:42:09;;;;;;;10.00;1.00;;;1.90;99.90;;;;;;5033191;28;20026;-71
2022/01/08 03:44:35;;;;;;;8.45;0.90;;;1.80;99.90;;;;;;5033522;28;20469;-71
2022/01/08 03:47:22;;;;;;;6.15;0.90;;;1.90;99.90;;;;;;5033203;28;20029;-71
2022/01/08 03:49:46;;;;;;;12.93;0.95;;;2.00;99.90;;;;;;5032588;28;20040;-69
2022/01/08 03:52:12;;;;;;;13.32;1.10;;;2.10;99.90;;;;;;5032986;28;20022;-70
2022/01/08 03:54:38;;;;;;;8.07;0.65;;;2.10;99.90;;;;;;5031841;28;20109;-70
2022/01/08 03:57:04;;;;;;;12.80;1.13;;;2.10;99.90;;;;;;5033124;28;20017;-71
2022/01/08 03:59:30;;;;;;;2.17;0.60;;;2.10;99.90;;;;;;5024231;28;20497;-71
2022/01/08 04:01:56;;;;;;;10.25;1.38;;;2.20;99.90;;;;;;5036191;28;20124;-71
2022/01/08 04:04:21;;;;;;;8.27;1.02;;;2.20;99.90;;;;;;5037133;28;20026;-71
2022/01/08 04:06:47;;;;;;;7.88;0.70;;;2.30;99.90;;;;;;5034968;28;20029;-71
2022/01/08 04:09:13;;;;;;;4.75;0.60;;;2.30;99.90;;;;;;5017227;28;20465;-71
2022/01/08 04:11:39;;;;;;;18.23;1.35;;;2.30;99.90;;;;;;5017465;28;20401;-71
2022/01/08 04:14:05;;;;;;;15.95;1.35;;;2.30;99.90;;;;;;5017177;28;20029;-68
2022/01/08 04:16:33;;;;;;;8.48;1.08;;;2.40;99.90;;;;;;5017168;28;20105;-70
2022/01/08 04:18:59;;;;;;;18.27;1.67;;;2.50;99.90;;;;;;5017096;28;20166;-71
2022/01/08 04:23:52;;;;;;;17.17;1.50;;;2.60;99.90;;;;;;5017341;28;20138;-71
2022/01/08 04:26:19;;;;;;;25.33;1.67;;;2.60;99.90;;;;;;5016959;28;20029;-71
2022/01/08 04:28:45;;;;;;;15.48;1.83;;;2.60;99.90;;;;;;5017160;28;20544;-71
2022/01/08 04:31:11;;;;;;;20.67;1.92;;;2.60;99.90;;;;;;5016853;28;20090;-71
2022/01/08 04:33:36;;;;;;;19.50;1.83;;;2.50;99.90;;;;;;5016810;28;20076;-71
2022/01/08 04:36:02;;;;;;;19.52;1.63;;;2.50;99.90;;;;;;5016830;28;20366;-71
2022/01/08 04:38:28;;;;;;;16.35;1.63;;;2.50;99.90;;;;;;5016510;28;20576;-70
2022/01/08 04:40:53;;;;;;;10.82;1.25;;;2.50;99.90;;;;;;5017175;28;20108;-71
2022/01/08 04:43:20;;;;;;;7.88;1.13;;;2.50;99.90;;;;;;5016682;28;20029;-69
2022/01/08 04:45:47;;;;;;;9.02;1.30;;;2.50;99.90;;;;;;5016460;28;20026;-68
2022/01/08 04:48:12;;;;;;;8.55;1.33;;;2.50;99.90;;;;;;5014813;28;20037;-70
2022/01/08 04:50:38;;;;;;;33.45;1.35;;;2.50;99.90;;;;;;5016710;28;20367;-71
2022/01/08 04:53:04;;;;;;;3.63;0.80;;;2.50;99.90;;;;;;5016419;28;20093;-71
2022/01/08 04:55:29;;;;;;;11.60;1.27;;;2.50;99.90;;;;;;5016659;28;20076;-71
2022/01/08 04:57:55;;;;;;;12.18;1.52;;;2.60;99.90;;;;;;5016964;28;20030;-71
2022/01/08 05:00:21;;;;;;;5.03;0.70;;;2.60;99.90;;;;;;5016330;28;20414;-71
2022/01/08 05:02:48;;;;;;;8.55;1.42;;;2.70;99.90;;;;;;5016336;28;20024;-70
2022/01/08 05:05:13;;;;;;;6.43;1.10;;;2.70;99.90;;;;;;5016273;28;20014;-71
2022/01/08 05:07:39;;;;;;;14.32;1.40;;;2.80;99.90;;;;;;5016208;28;20040;-70
2022/01/08 05:10:06;;;;;;;7.15;0.77;;;2.80;99.90;;;;;;5016062;28;20026;-71
2022/01/08 05:12:32;;;;;;;11.88;1.38;;;2.70;99.90;;;;;;5015896;28;20049;-71
2022/01/08 05:15:00;;;;;;;16.15;1.73;;;2.70;99.90;;;;;;5016377;28;20377;-70
2022/01/08 05:17:30;;;;;;;8.38;1.75;;;2.60;99.90;;;;;;5014775;28;20030;-70
2022/01/08 05:19:59;;;;;;;13.13;1.58;;;2.60;99.90;;;;;;5016089;28;20164;-70
2022/01/08 05:22:27;;;;;;;16.80;1.63;;;2.50;99.90;;;;;;5015783;28;20049;-71
2022/01/08 05:24:53;;;;;;;21.35;2.17;;;2.60;99.90;;;;;;5015938;28;20022;-71
2022/01/08 05:27:19;;;;;;;26.45;1.05;;;2.60;99.90;;;;;;5015815;28;20105;-71
2022/01/08 05:29:46;;;;;;;8.10;1.35;;;2.60;99.90;;;;;;5015757;28;20498;-71
2022/01/08 05:32:19;;;;;;;18.08;0.90;;;2.60;99.90;;;;;;5015759;28;20132;-70
2022/01/08 05:34:45;;;;;;;11.25;1.90;;;2.50;99.90;;;;;;5015761;28;20488;-71
2022/01/08 05:37:10;;;;;;;4.70;1.00;;;2.40;99.90;;;;;;5015677;28;20033;-71
2022/01/08 05:39:36;;;;;;;6.85;0.80;;;2.40;99.90;;;;;;5016180;28;20029;-71
2022/01/08 05:42:02;;;;;;;3.58;0.75;;;2.40;99.90;;;;;;5015767;28;20543;-71
2022/01/08 05:44:27;;;;;;;7.88;0.90;;;2.30;99.90;;;;;;5015810;28;20034;-70
2022/01/08 05:46:53;;;;;;;7.25;0.80;;;2.30;99.90;;;;;;5015456;28;20022;-71
2022/01/08 05:49:18;;;;;;;12.13;1.10;;;2.30;99.90;;;;;;5026525;28;20025;-71
2022/01/08 05:51:44;;;;;;;10.25;1.55;;;2.30;99.90;;;;;;5035120;28;20026;-71
2022/01/08 05:54:10;;;;;;;15.43;0.77;;;2.30;99.90;;;;;;5035030;28;20061;-71
2022/01/08 05:56:35;;;;;;;9.10;0.80;;;2.20;99.90;;;;;;5035067;28;20044;-71
2022/01/08 05:59:01;;;;;;;10.15;1.20;;;2.30;99.90;;;;;;5034721;28;20029;-71
2022/01/08 06:01:27;;;;;;;16.90;1.40;;;2.30;99.90;;;;;;5034865;28;20029;-70
2022/01/08 06:03:53;;;;;;;6.10;1.00;;;2.30;99.90;;;;;;5034929;28;20159;-71
2022/01/08 06:06:18;;;;;;;6.60;1.10;;;2.30;99.90;;;;;;5034951;28;20052;-70
2022/01/08 06:08:44;;;;;;;8.95;1.20;;;2.40;99.90;;;;;;5035071;28;20029;-70
2022/01/08 06:11:10;;;;;;;5.55;1.33;;;2.50;99.90;;;;;;5035097;28;20022;-71
2022/01/08 06:13:35;;;;;;;13.65;1.30;;;2.50;99.90;;;;;;5035314;28;20035;-71
2022/01/08 06:16:01;;;;;;;15.40;1.63;;;2.50;99.90;;;;;;5034677;28;20096;-70
2022/01/08 06:18:26;;;;;;;15.63;1.33;;;2.50;99.90;;;;;;5034673;28;20028;-70
2022/01/08 06:20:52;;;;;;;10.93;1.20;;;2.60;99.90;;;;;;5034825;28;20036;-70
2022/01/08 06:23:18;;;;;;;11.13;1.63;;;2.60;99.90;;;;;;5033892;28;20041;-71
2022/01/08 06:25:43;;;;;;;15.50;1.38;;;2.70;99.90;;;;;;5034827;28;20029;-70
2022/01/08 06:28:10;;;;;;;23.10;1.80;;;2.70;99.90;;;;;;5034629;28;20025;-71
2022/01/08 06:30:36;;;;;;;28.98;2.55;;;2.60;99.90;;;;;;5034447;28;20025;-71
2022/01/08 06:33:02;;;;;;;13.65;2.80;;;2.70;99.90;;;;;;5034336;28;20029;-70
2022/01/08 06:35:27;;;;;;;19.00;2.28;;;2.80;99.90;;;;;;5034307;28;20496;-71
2022/01/08 06:37:53;;;;;;;16.20;2.15;;;3.00;99.90;;;;;;5034333;28;20026;-70
2022/01/08 06:40:19;;;;;;;18.60;2.40;;;3.10;99.90;;;;;;5034195;28;20434;-70
2022/01/08 06:42:44;;;;;;;22.55;2.42;;;3.10;99.90;;;;;;5034236;28;20052;-70
2022/01/08 06:45:10;;;;;;;24.42;2.33;;;3.10;99.90;;;;;;5034130;28;20025;-70
2022/01/08 06:47:36;;;;;;;14.40;2.60;;;3.10;99.90;;;;;;5034101;28;20037;-71
2022/01/08 06:50:02;;;;;;;16.05;1.80;;;3.20;99.90;;;;;;5032732;28;20032;-71
2022/01/08 06:52:28;;;;;;;23.38;2.20;;;3.20;99.90;;;;;;5034153;28;20021;-70
2022/01/08 06:54:54;;;;;;;11.32;1.83;;;3.10;99.90;;;;;;5034270;28;20101;-71
2022/01/08 06:57:19;;;;;;;20.35;1.85;;;3.00;99.90;;;;;;5034187;28;20072;-70
2022/01/08 06:59:45;;;;;;;23.23;3.10;;;2.90;99.90;;;;;;5033895;28;20034;-71
2022/01/08 07:02:10;;;;;;;11.52;1.33;;;2.70;99.90;;;;;;5033913;28;20026;-71
2022/01/08 07:04:36;;;;;;;13.25;1.30;;;2.70;99.90;;;;;;5033808;28;20033;-71
2022/01/08 07:07:01;;;;;;;9.70;0.77;;;2.70;99.90;;;;;;5033511;28;20025;-71
2022/01/08 07:09:27;;;;;;;18.67;1.65;;;2.70;99.90;;;;;;5033312;28;20103;-71
2022/01/08 07:11:53;;;;;;;13.75;1.80;;;2.70;99.90;;;;;;5034235;28;20026;-71
2022/01/08 07:14:18;;;;;;;13.43;1.38;;;2.60;99.90;;;;;;5033832;28;20473;-71
2022/01/08 07:16:46;;;;;;;8.82;0.88;;;2.60;99.90;;;;;;5033919;28;20055;-69
2022/01/08 07:19:11;;;;;;;13.10;1.38;;;2.50;99.90;;;;;;5033533;28;20028;-71
2022/01/08 07:21:37;;;;;;;13.50;1.80;;;2.60;99.90;;;;;;5033352;28;20041;-71
2022/01/08 07:24:02;;;;;;;9.88;1.25;;;2.50;99.90;;;;;;5033485;28;20024;-71
2022/01/08 07:26:28;;;;;;;9.90;1.02;;;2.60;99.90;;;;;;5032187;28;20067;-71
2022/01/08 07:28:53;;;;;;;28.45;2.50;;;2.70;99.90;;;;;;5032101;28;20072;-71
2022/01/08 07:31:19;;;;;;;14.38;1.33;;;2.70;99.90;;;;;;5033323;28;20026;-71
2022/01/08 07:33:49;;;;;;;13.80;1.50;;;2.70;99.90;;;;;;5033361;28;20461;-71
2022/01/08 07:36:18;;;;;;;11.70;1.40;;;2.60;99.90;;;;;;5032845;28;20021;-71
2022/01/08 07:38:44;;;;;;;12.88;1.85;;;2.60;99.90;;;;;;5033549;28;20441;-71
2022/01/08 07:41:09;;;;;;;18.75;1.35;;;2.50;99.90;;;;;;5033196;28;20063;-71
2022/01/08 07:43:35;;;;;;;30.00;2.35;;;2.40;99.90;;;;;;5032631;28;20108;-71
2022/01/08 07:46:00;;;;;;;24.58;3.50;;;2.50;99.90;;;;;;5033224;28;20037;-71
2022/01/08 07:48:26;;;;;;;23.13;2.00;;;2.40;99.90;;;;;;5031834;28;20025;-70
2022/01/08 07:50:52;;;;;;;21.67;2.00;;;2.40;99.90;;;;;;5033054;28;20473;-70
2022/01/08 07:53:18;;;;;;;27.60;2.15;;;2.50;99.90;;;;;;5033123;28;20017;-70
2022/01/08 07:55:45;;;;;;;22.08;2.20;;;2.50;99.90;;;;;;5033402;28;20033;-71
2022/01/08 07:58:10;;;;;;;26.13;1.80;;;2.50;99.90;;;;;;5033348;28;20025;-71
2022/01/08 08:00:36;;;;;;;20.35;1.58;;;2.60;99.90;;;;;;5033052;28;20029;-71
2022/01/08 08:03:01;;;;;;;18.67;1.88;;;2.60;99.90;;;;;;5032435;28;20060;-70
2022/01/08 08:05:27;;;;;;;13.75;2.80;;;2.70;99.90;;;;;;5033323;28;20103;-71
2022/01/08 08:07:54;;;;;;;25.10;2.17;;;2.70;99.90;;;;;;5032959;28;20025;-71
2022/01/08 08:10:22;;;;;;;15.55;2.17;;;2.70;99.90;;;;;;5031677;28;20025;-71
2022/01/08 08:12:47;;;;;;;8.70;2.20;;;2.70;99.90;;;;;;5032990;28;20022;-71
2022/01/08 08:15:15;;;;;;;15.10;1.60;;;2.70;99.90;;;;;;5033199;28;20037;-71
2022/01/08 08:17:41;;;;;;;17.10;1.95;;;2.70;99.90;;;;;;5032858;28;20101;-71
2022/01/08 08:20:08;;;;;;;20.65;2.20;;;2.60;99.90;;;;;;5033184;28;20029;-71
2022/01/08 08:22:33;;;;;;;21.10;2.92;;;2.60;99.90;;;;;;5032610;28;20047;-71
2022/01/08 08:25:00;;;;;;;17.83;1.45;;;2.60;99.90;;;;;;5033081;28;20132;-69
2022/01/08 08:27:26;;;;;;;23.52;2.88;;;2.60;99.90;;;;;;5031563;28;20468;-68
2022/01/08 08:29:52;;;;;;;13.40;1.80;;;2.70;99.90;;;;;;5032752;28;20030;-69
2022/01/08 08:32:17;;;;;;;18.10;2.10;;;2.80;99.90;;;;;;5032891;28;20041;-68
2022/01/08 08:34:43;;;;;;;21.25;1.80;;;2.80;99.90;;;;;;5032216;28;20026;-71
2022/01/08 08:37:09;;;;;;;7.40;1.65;;;2.90;99.90;;;;;;5032514;28;20048;-71
2022/01/08 08:39:34;;;;;;;22.50;2.17;;;2.80;99.90;;;;;;5032991;28;20048;-71
2022/01/08 08:42:00;;;;;;;12.15;2.17;;;2.90;99.90;;;;;;5031386;28;20025;-71
2022/01/08 08:44:25;;;;;;;16.25;2.00;;;3.00;99.90;;;;;;5033194;28;20033;-71
2022/01/08 08:46:51;;;;;;;15.90;2.00;;;2.90;99.90;;;;;;5033905;28;20094;-71
2022/01/08 08:49:16;;;;;;;31.67;2.13;;;3.00;99.90;;;;;;5036244;28;20037;-71
2022/01/08 08:51:42;;;;;;;19.88;1.77;;;3.00;99.90;;;;;;5036225;28;20025;-71
2022/01/08 08:54:08;;;;;;;21.90;2.28;;;3.10;99.90;;;;;;5035313;28;20064;-71
2022/01/08 08:56:33;;;;;;;14.43;2.42;;;3.20;99.90;;;;;;5036558;28;20033;-71
2022/01/08 08:58:59;;;;;;;14.73;2.10;;;3.30;99.90;;;;;;5034576;28;20049;-71
2022/01/08 09:01:26;;;;;;;13.35;2.72;;;3.40;99.90;;;;;;5035998;28;20033;-71
2022/01/08 09:03:52;;;;;;;28.20;2.47;;;3.50;99.90;;;;;;5036149;28;20124;-72
2022/01/08 09:06:19;;;;;;;21.75;2.50;;;3.60;99.90;;;;;;5036079;28;20484;-71
2022/01/08 09:08:44;;;;;;;17.60;2.20;;;3.60;99.90;;;;;;5035943;28;20030;-71
2022/01/08 09:11:10;;;;;;;13.23;1.58;;;3.70;99.90;;;;;;5035893;28;20024;-71
2022/01/08 09:13:36;;;;;;;22.48;2.55;;;3.70;99.90;;;;;;5035943;28;20388;-71
2022/01/08 09:16:01;;;;;;;23.90;3.45;;;3.70;99.90;;;;;;5035882;28;20017;-71
2022/01/08 09:18:27;;;;;;;10.18;2.05;;;3.80;99.90;;;;;;5035884;28;20424;-71
2022/01/08 09:20:53;;;;;;;28.10;2.42;;;3.90;99.90;;;;;;5035774;28;20029;-71
2022/01/08 09:23:19;;;;;;;23.63;2.42;;;3.90;99.90;;;;;;5034343;28;20034;-71
2022/01/08 09:25:44;;;;;;;26.98;3.45;;;4.00;99.90;;;;;;5035717;28;20036;-71
2022/01/08 09:28:10;;;;;;;33.75;3.72;;;4.10;99.90;;;;;;5035594;28;20033;-71
2022/01/08 09:30:36;;;;;;;25.60;3.08;;;4.10;99.90;;;;;;5035360;28;20136;-71
2022/01/08 09:33:02;;;;;;;32.45;3.38;;;4.20;99.90;;;;;;5035510;28;20048;-71
2022/01/08 09:35:28;;;;;;;32.88;3.65;;;4.30;99.90;;;;;;5034229;28;20483;-71
2022/01/08 09:37:54;;;;;;;26.65;3.13;;;4.30;99.90;;;;;;5035710;28;20037;-71
2022/01/08 09:40:23;;;;;;;24.85;2.85;;;4.40;99.90;;;;;;5035156;28;20021;-71
2022/01/08 09:42:50;;;;;;;37.28;5.20;;;4.50;99.90;;;;;;5034583;28;20024;-70
2022/01/08 09:45:16;;;;;;;22.08;3.40;;;4.60;99.90;;;;;;5035312;28;20037;-70
2022/01/08 09:47:41;;;;;;;25.08;3.05;;;4.60;99.90;;;;;;5035826;28;20036;-70
2022/01/08 09:50:08;;;;;;;15.10;2.15;;;4.70;99.90;;;;;;5033917;28;20025;-70
2022/01/08 09:52:34;;;;;;;25.63;3.28;;;4.70;99.90;;;;;;5035376;28;20096;-70
2022/01/08 09:55:00;;;;;;;13.25;2.03;;;4.70;99.90;;;;;;5035813;28;20101;-70
2022/01/08 09:57:26;;;;;;;9.68;1.92;;;4.70;99.90;;;;;;5034787;28;20447;-71
2022/01/08 09:59:53;;;;;;;14.05;1.88;;;4.70;99.90;;;;;;5034208;28;20374;-71
2022/01/08 10:02:22;;;;;;;14.23;2.00;;;4.80;99.90;;;;;;5034926;28;20057;-71
2022/01/08 10:04:48;;;;;;;17.50;2.45;;;4.80;99.90;;;;;;5034922;28;20032;-71
2022/01/08 10:07:21;;;;;;;20.95;1.92;;;4.90;99.90;;;;;;5034904;28;20029;-71
2022/01/08 10:10:10;;;;;;;13.38;1.67;;;4.90;99.90;;;;;;5035011;28;20075;-71
2022/01/08 10:12:48;;;;;;;5.88;1.38;;;4.90;99.90;;;;;;5035008;28;20420;-71
2022/01/08 10:18:07;;;;;;;16.27;1.85;;;4.70;99.90;;;;;;5034947;28;20028;-71
2022/01/08 10:20:39;;;;;;;14.82;1.55;;;4.60;99.90;;;;;;5034612;28;20196;-71
2022/01/08 10:23:34;;;;;;;11.85;1.85;;;4.60;99.90;;;;;;5034562;28;20033;-71
2022/01/08 10:26:11;;;;;;;12.18;1.55;;;4.60;99.90;;;;;;5017898;28;20034;-72
2022/01/08 10:28:45;;;;;;;14.98;1.55;;;4.60;99.90;;;;;;5034612;28;20029;-71
2022/01/08 10:31:33;;;;;;;8.70;1.10;;;4.60;99.90;;;;;;5034680;28;20079;-71
2022/01/08 10:34:20;;;;;;;14.57;2.63;;;4.60;99.90;;;;;;5034456;28;20029;-71
2022/01/08 10:36:56;;;;;;;11.02;2.30;;;4.60;99.90;;;;;;5034608;28;20033;-71
2022/01/08 10:39:34;;;;;;;10.32;1.30;;;4.70;99.90;;;;;;5034621;28;20025;-71
2022/01/08 10:42:10;;;;;;;11.18;1.10;;;4.80;99.90;;;;;;5034359;28;20477;-71
2022/01/08 10:44:35;;;;;;;10.35;1.63;;;4.90;99.90;;;;;;5034179;28;20025;-71
2022/01/08 10:47:12;;;;;;;11.52;1.25;;;5.00;99.90;;;;;;5034695;28;20087;-71
2022/01/08 10:49:44;;;;;;;9.35;1.33;;;5.20;99.90;;;;;;5034346;28;20076;-71
2022/01/08 10:52:11;;;;;;;11.23;1.50;;;5.20;99.90;;;;;;5034313;28;20049;-71
2022/01/08 10:54:42;;;;;;;12.68;1.15;;;5.20;99.90;;;;;;5034010;28;20119;-71
2022/01/08 10:57:09;;;;;;;25.48;1.90;;;5.10;99.90;;;;;;5034028;28;20020;-71
2022/01/08 10:59:36;;;;;;;14.65;2.42;;;5.10;99.90;;;;;;5033936;28;20021;-71
2022/01/08 11:02:07;;;;;;;9.10;1.45;;;5.20;99.90;;;;;;5033884;28;20049;-71
2022/01/08 11:04:51;;;;;;;10.98;1.50;;;5.20;99.90;;;;;;5033848;28;20021;-71
2022/01/08 11:07:24;;;;;;;9.52;3.13;;;5.20;99.90;;;;;;5033830;28;20033;-70
2022/01/08 11:09:51;;;;;;;;;;;5.30;99.90;;;;;;5033982;28;20028;-71
2022/01/08 11:12:20;;;;;;;9.57;1.67;;;5.30;99.90;;;;;;5032380;28;19909;-71
2022/01/08 11:17:32;;;;;;;22.25;2.13;;;5.40;99.90;;;;;;5033652;28;20041;-71
2022/01/08 11:20:05;;;;;;;31.60;2.88;;;5.40;99.90;;;;;;5033887;28;20029;-71
2022/01/08 11:22:32;;;;;;;14.30;1.98;;;5.30;99.90;;;;;;5032094;28;20116;-71
2022/01/08 11:25:24;;;;;;;19.88;2.53;;;5.30;99.90;;;;;;5033520;28;20535;-71
2022/01/08 11:28:05;;;;;;;21.35;3.05;;;5.20;99.90;;;;;;5022782;28;20390;-71
2022/01/08 11:30:34;;;;;;;25.05;3.15;;;5.20;99.90;;;;;;5033520;28;20429;-71
2022/01/08 11:33:07;;;;;;;28.50;2.90;;;5.40;99.90;;;;;;5033313;28;20025;-71
2022/01/08 11:35:35;;;;;;;23.77;3.03;;;5.40;99.90;;;;;;5033693;28;20076;-71
2022/01/08 11:38:04;;;;;;;18.17;1.80;;;5.50;99.90;;;;;;5033282;28;20018;-71
2022/01/08 11:40:31;;;;;;;22.20;2.90;;;5.50;99.90;;;;;;5033304;28;20503;-71
2022/01/08 11:43:04;;;;;;;29.50;3.47;;;5.40;99.90;;;;;;5031932;28;20029;-72
2022/01/08 11:45:32;;;;;;;;;;;5.30;99.90;;;;;;5033654;28;20033;-71
2022/01/08 11:48:01;;;;;;;26.67;2.58;;;5.30;99.90;;;;;;5032568;28;19905;-71
2022/01/08 11:50:29;;;;;;;38.30;5.25;;;5.40;99.90;;;;;;5033042;28;20029;-72
2022/01/08 11:53:13;;;;;;;31.45;3.75;;;5.30;99.90;;;;;;5032952;28;20025;-71
2022/01/08 11:55:40;;;;;;;34.40;5.22;;;5.30;99.90;;;;;;5033116;28;20030;-71
2022/01/08 11:58:26;;;;;;;38.00;3.80;;;5.40;99.90;;;;;;5032705;28;20029;-72
2022/01/08 12:00:55;;;;;;;32.70;4.28;;;5.30;99.90;;;;;;5033022;28;20021;-72
2022/01/08 12:03:35;;;;;;;31.77;6.10;;;5.40;99.90;;;;;;5033254;28;20049;-71
2022/01/08 12:06:23;;;;;;;41.05;4.00;;;5.40;99.90;;;;;;5033615;28;20529;-72
2022/01/08 12:09:22;;;;;;;32.15;3.65;;;5.30;99.90;;;;;;5033217;28;20087;-71
2022/01/08 12:12:06;;;;;;;41.50;5.25;;;5.20;99.90;;;;;;5033092;28;20481;-71
2022/01/08 12:14:34;;;;;;;35.78;4.20;;;5.30;99.90;;;;;;5034044;28;20342;-71
2022/01/08 12:17:17;;;;;;;43.75;3.63;;;5.20;99.90;;;;;;5033446;28;20030;-72
2022/01/08 12:19:55;;;;;;;31.48;4.13;;;5.20;99.90;;;;;;5033503;28;20026;-72
2022/01/08 12:22:20;;;;;;;34.83;4.38;;;5.10;99.90;;;;;;5051699;22;20140;-75
2022/01/08 12:24:55;;;;;;;34.70;4.68;;;5.10;99.90;;;;;;5017415;28;20049;-75
2022/01/08 12:27:39;;;;;;;25.25;2.95;;;5.10;99.90;;;;;;5016089;28;20397;-75
2022/01/08 12:30:17;;;;;;;29.60;3.70;;;5.20;99.90;;;;;;5015712;28;20034;-75
2022/01/08 12:32:49;;;;;;;22.27;3.97;;;5.20;99.90;;;;;;5016861;28;20022;-75
2022/01/08 12:35:19;;;;;;;32.13;3.30;;;5.20;99.90;;;;;;5017202;28;20022;-75
2022/01/08 12:37:47;;;;;;;37.13;5.05;;;5.10;99.90;;;;;;5016890;28;20096;-75
2022/01/08 12:40:43;;;;;;;20.50;3.47;;;5.10;99.90;;;;;;5016835;28;20026;-75
2022/01/08 12:43:35;;;;;;;27.55;3.08;;;5.10;99.90;;;;;;5016801;28;20018;-75
2022/01/08 12:46:37;;;;;;;26.70;4.45;;;5.10;99.90;;;;;;5017020;28;20500;-75
2022/01/08 12:49:09;;;;;;;30.70;4.82;;;5.10;99.90;;;;;;4995203;28;20099;-75
2022/01/08 12:52:05;;;;;;;23.83;4.47;;;5.10;99.90;;;;;;5016645;28;20097;-75
2022/01/08 12:54:31;;;;;;;25.27;3.95;;;4.90;99.90;;;;;;5015669;28;20512;-74
2022/01/08 12:57:00;;;;;;;27.48;3.35;;;4.90;99.90;;;;;;5015283;28;20165;-75
2022/01/08 12:59:37;;;;;;;13.55;2.95;;;4.90;99.90;;;;;;5016476;28;20375;-75
2022/01/08 13:02:06;;;;;;;32.88;4.78;;;4.90;99.90;;;;;;5016324;28;20022;-75
2022/01/08 13:04:32;;;;;;;22.65;3.15;;;4.90;99.90;;;;;;5016682;28;20124;-74
2022/01/08 13:06:57;;;;;;;36.35;3.70;;;4.80;99.90;;;;;;5016599;28;20061;-75
2022/01/08 13:09:23;;;;;;;28.88;3.47;;;4.70;99.90;;;;;;5016224;28;20500;-75
2022/01/08 13:11:49;;;;;;;18.33;3.42;;;4.80;99.90;;;;;;5016193;28;20097;-75
2022/01/08 13:14:16;;;;;;;26.77;3.90;;;4.80;99.90;;;;;;5016767;28;20469;-75
2022/01/08 13:16:53;;;;;;;24.63;3.97;;;4.80;99.90;;;;;;5016175;28;20029;-73